Data for 05/14/2009

Time Sea-Level Adjusted Pressure Absolute Pressure Temperature Relative Humidity Dew Point   
(mb) (inHg) (mb) (inHg) (C) (F) (%) (C) (F)
00:05 1014 29.94 844 24.92 8.6 47.5 23 -11.6 11.2
00:10 1014 29.94 843 24.89 8.5 47.3 23 -11.5 11.3
00:15 1014 29.94 843 24.89 8.4 47 22 -12 10.4
00:20 1014 29.94 843 24.89 8.4 47.1 23 -11.8 10.8
00:25 1014 29.94 843 24.89 8.4 47.1 22 -11.9 10.6
00:30 1014 29.94 843 24.89 8.3 46.9 22 -12.2 10.1
00:35 1014 29.94 843 24.89 8.4 47.2 21 -12.8 8.9
00:40 1014 29.94 843 24.89 8.5 47.4 20 -12.9 8.7
00:45 1014 29.94 843 24.89 8.6 47.4 22 -12.2 10
00:50 1014 29.94 843 24.89 8.9 48 20 -12.7 9.2
00:55 1014 29.94 843 24.89 9.2 48.5 25 -9.9 14.1
01:00 1014 29.94 843 24.89 9 48.2 28 -8.7 16.3
01:05 1014 29.94 843 24.89 8.5 47.2 26 -10.1 13.9
01:10 1014 29.94 843 24.89 8.7 47.6 22 -11.8 10.7
01:15 1014 29.94 843 24.89 9.3 48.7 20 -12.6 9.3
01:20 1014 29.94 843 24.89 9.3 48.8 21 -12.2 10.1
01:25 1014 29.94 843 24.89 9.2 48.6 19 -13.4 7.8
01:30 1014 29.94 843 24.89 9.5 49 19 -13.1 8.5
01:35 1014 29.94 843 24.89 9.5 49.1 19 -13.1 8.4
01:40 1014 29.94 843 24.89 9.5 49.1 19 -13.1 8.4
01:45 1014 29.94 843 24.89 9.4 48.9 21 -12.1 10.1
01:50 1014 29.94 843 24.89 9.3 48.7 19 -13.3 8.1
01:55 1014 29.94 843 24.89 9.2 48.5 20 -12.7 9.1
02:00 1014 29.94 843 24.89 9.1 48.4 21 -12.4 9.8
02:05 1014 29.94 843 24.89 9 48.2 21 -12.1 10.2
02:10 1014 29.94 843 24.89 8.9 48.1 21 -12.1 10.2
02:15 1014 29.94 843 24.89 8.9 48.1 21 -12.5 9.6
02:20 1014 29.94 843 24.89 9 48.2 20 -13 8.6
02:25 1014 29.94 843 24.89 9 48.2 20 -12.6 9.3
02:30 1014 29.94 843 24.89 9 48.1 22 -11.9 10.6
02:35 1014 29.94 843 24.89 8.8 47.9 22 -11.8 10.8
02:40 1014 29.94 843 24.89 9.1 48.3 21 -12.4 9.7
02:45 1014 29.94 843 24.89 9 48.1 21 -12 10.5
02:50 1013 29.91 843 24.89 9 48.1 21 -12.4 9.7
02:55 1013 29.91 843 24.89 8.9 48 22 -11.6 11.2
03:00 1013 29.91 843 24.89 8.6 47.4 23 -11.5 11.2
03:05 1013 29.91 843 24.89 8.6 47.4 23 -11.6 11.2
03:10 1013 29.91 842 24.86 8.4 47.2 24 -11.1 12.1
03:15 1013 29.91 842 24.86 8.2 46.8 23 -11.5 11.3
03:20 1013 29.91 842 24.86 8.4 47.2 24 -11.1 12
03:25 1013 29.91 842 24.86 8.4 47.1 23 -11.8 10.8
03:30 1013 29.91 842 24.86 8.4 47.1 22 -11.9 10.5
03:35 1013 29.91 842 24.86 8.4 47.1 23 -11.4 11.4
03:40 1013 29.91 842 24.86 8.3 47 24 -11.1 12
03:45 1013 29.91 842 24.86 8.2 46.7 24 -11.4 11.5
03:50 1013 29.91 842 24.86 8.2 46.7 23 -11.5 11.2
03:55 1013 29.91 842 24.86 8.2 46.7 25 -10.8 12.5
04:00 1013 29.91 842 24.86 8.1 46.6 25 -10.9 12.5
04:05 1013 29.91 842 24.86 8.3 46.9 26 -10.3 13.4
04:10 1013 29.91 842 24.86 8 46.4 29 -9 15.9
04:15 1013 29.91 842 24.86 7.8 46 28 -9.5 14.8
04:20 1013 29.91 842 24.86 8 46.3 26 -10.2 13.6
04:25 1013 29.91 842 24.86 8.3 46.9 27 -9.7 14.6
04:30 1013 29.91 842 24.86 8.3 46.9 28 -9.2 15.4
04:35 1013 29.91 842 24.86 8.1 46.6 28 -9.3 15.2
04:40 1013 29.91 842 24.86 8.2 46.7 28 -9.2 15.5
04:45 1013 29.91 842 24.86 8.5 47.2 28 -9.1 15.6
04:50 1012 29.88 842 24.86 8.4 47 28 -9.2 15.5
04:55 1012 29.88 842 24.86 8.4 47.1 28 -9.1 15.6
05:00 1012 29.88 842 24.86 8.4 47 28 -8.9 16
05:05 1012 29.88 842 24.86 8.4 47.1 28 -9.1 15.6
05:10 1012 29.88 842 24.86 8.4 47.2 29 -8.6 16.6
05:15 1012 29.88 841 24.83 8.3 46.9 29 -8.6 16.5
05:20 1012 29.88 841 24.83 8.2 46.7 30 -8.3 17
05:25 1012 29.88 841 24.83 8.1 46.6 30 -8.4 16.9
05:30 1012 29.88 841 24.83 8.3 46.9 28 -9 15.8
05:35 1012 29.88 841 24.83 8.5 47.4 29 -8.6 16.6
05:40 1012 29.88 841 24.83 8.6 47.5 27 -9.1 15.5
05:45 1012 29.88 841 24.83 8.9 48 27 -9 15.8
05:50 1012 29.88 841 24.83 9 48.2 27 -8.9 15.9
05:55 1012 29.88 841 24.83 8.9 48 28 -8.5 16.8
06:00 1012 29.88 841 24.83 8.7 47.7 29 -8.5 16.6
06:05 1012 29.88 841 24.83 8.6 47.5 30 -8 17.6
06:10 1012 29.88 841 24.83 8.4 47.1 30 -8.1 17.3
06:15 1012 29.88 841 24.83 8.4 47.1 29 -8.5 16.8
06:20 1012 29.88 841 24.83 8.6 47.5 30 -8 17.6
06:25 1012 29.88 841 24.83 8.7 47.6 30 -7.9 17.9
06:30 1012 29.88 841 24.83 8.7 47.6 30 -8.1 17.4
06:35 1012 29.88 841 24.83 8.9 48 30 -7.9 17.8
06:40 1012 29.88 841 24.83 8.9 48.1 31 -7.4 18.6
06:45 1012 29.88 841 24.83 9.1 48.4 32 -6.8 19.7
06:50 1012 29.88 841 24.83 9.1 48.4 33 -6.4 20.5
06:55 1012 29.88 841 24.83 9.2 48.6 35 -5.4 22.3
07:00 1012 29.88 841 24.83 9.3 48.7 36 -4.9 23.2
07:05 1012 29.88 841 24.83 9.3 48.7 36 -5 23
07:10 1012 29.88 841 24.83 9.5 49.1 36 -5 23
07:15 1012 29.88 841 24.83 9.7 49.4 35 -5 23
07:20 1012 29.88 841 24.83 9.8 49.6 35 -5 23
07:25 1012 29.88 841 24.83 9.8 49.7 36 -4.6 23.7
07:30 1012 29.88 841 24.83 9.9 49.8 36 -4.6 23.8
07:35 1012 29.88 841 24.83 10 49.9 36 -4.5 23.8
07:40 1012 29.88 841 24.83 10.1 50.1 35 -4.8 23.3
07:45 1012 29.88 841 24.83 10.2 50.4 34 -5.1 22.9
07:50 1012 29.88 841 24.83 10.3 50.5 33 -5.1 22.8
07:55 1012 29.88 841 24.83 10.4 50.7 33 -5.3 22.5
08:00 1012 29.88 841 24.83 10.4 50.7 33 -5.2 22.7
08:05 1012 29.88 841 24.83 10.4 50.6 33 -5.2 22.7
08:10 1012 29.88 841 24.83 10.5 50.8 33 -5 23
08:15 1012 29.88 841 24.83 10.6 51.1 33 -5.1 22.9
08:20 1012 29.88 841 24.83 10.7 51.3 33 -4.8 23.3
08:25 1012 29.88 841 24.83 10.8 51.4 33 -4.8 23.3
08:30 1012 29.88 841 24.83 10.8 51.4 33 -5 23.1
08:35 1012 29.88 841 24.83 10.6 51.1 34 -4.7 23.6
08:40 1012 29.88 841 24.83 10.3 50.6 35 -4.5 23.8
08:45 1012 29.88 841 24.83 10.3 50.5 34 -4.7 23.5
08:50 1012 29.88 841 24.83 10.4 50.7 34 -4.7 23.5
08:55 1012 29.88 841 24.83 10.4 50.7 35 -4.5 23.9
09:00 1012 29.88 841 24.83 10.4 50.7 34 -4.8 23.4
09:05 1012 29.88 841 24.83 10.5 50.9 33 -4.9 23.1
09:10 1012 29.88 841 24.83 10.7 51.2 34 -4.5 23.9
09:15 1012 29.88 841 24.83 10.9 51.7 33 -4.7 23.5
09:20 1012 29.88 841 24.83 11.3 52.3 32 -4.9 23.2
09:25 1012 29.88 841 24.83 11.5 52.6 33 -4.4 24.1
09:30 1012 29.88 841 24.83 11.9 53.4 31 -4.7 23.6
09:35 1012 29.88 841 24.83 12.2 53.9 30 -5 23.1
09:40 1012 29.88 841 24.83 12.2 53.9 30 -5 23
09:45 1012 29.88 841 24.83 12.2 54 30 -4.9 23.3
09:50 1012 29.88 841 24.83 12.2 53.9 30 -5 23.1
09:55 1012 29.88 841 24.83 12.1 53.9 31 -4.6 23.7
10:00 1012 29.88 841 24.83 12.2 53.9 31 -4.6 23.7
10:05 1012 29.88 841 24.83 12.2 54 31 -4.5 23.9
10:10 1011 29.85 841 24.83 12.3 54.1 30 -4.6 23.7
10:15 1011 29.85 841 24.83 12.3 54.2 31 -4.3 24.3
10:20 1011 29.85 841 24.83 12.5 54.5 30 -4.6 23.7
10:25 1011 29.85 841 24.83 12.6 54.7 30 -4.4 24.1
10:30 1011 29.85 841 24.83 12.4 54.4 30 -4.6 23.7
10:35 1011 29.85 841 24.83 12.5 54.5 31 -4.2 24.4
10:40 1011 29.85 841 24.83 12.6 54.7 30 -4.7 23.6
10:45 1011 29.85 841 24.83 12.7 54.8 30 -4.6 23.7
10:50 1011 29.85 841 24.83 12.8 55 30 -4.4 24.1
10:55 1011 29.85 841 24.83 13 55.4 29 -4.5 24
11:00 1011 29.85 841 24.83 12.9 55.3 29 -4.4 24.1
11:05 1011 29.85 841 24.83 13 55.5 29 -4.7 23.6
11:10 1011 29.85 841 24.83 13.2 55.8 29 -4.3 24.3
11:15 1011 29.85 841 24.83 13.3 55.9 29 -4.3 24.3
11:20 1011 29.85 841 24.83 13.5 56.2 28 -4.4 24.1
11:25 1011 29.85 840 24.81 13.9 57 29 -4 24.8
11:30 1011 29.85 840 24.81 14.3 57.7 28 -3.8 25.2
11:35 1011 29.85 841 24.83 14.1 57.4 28 -4 24.7
11:40 1011 29.85 841 24.83 13.8 56.9 28 -4.3 24.3
11:45 1011 29.85 841 24.83 13.8 56.8 28 -4.3 24.2
11:50 1011 29.85 840 24.81 14.2 57.5 28 -4.2 24.5
11:55 1011 29.85 840 24.81 14.4 58 27 -4.3 24.2
12:00 1011 29.85 840 24.81 14.6 58.3 27 -4.3 24.2
12:05 1011 29.85 840 24.81 14.8 58.6 26 -4.5 24
12:10 1011 29.85 840 24.81 14.3 57.8 26 -4.6 23.7
12:15 1011 29.85 840 24.81 14.1 57.4 27 -4.5 23.9
12:20 1011 29.85 840 24.81 14.1 57.4 28 -3.9 25
12:25 1011 29.85 840 24.81 14.1 57.5 28 -3.8 25.1
12:30 1011 29.85 841 24.83 14 57.1 29 -3.7 25.3
12:35 1011 29.85 841 24.83 13.9 57.1 30 -3.3 26.1
12:40 1011 29.85 841 24.83 13.2 55.8 33 -2.8 26.9
12:45 1012 29.88 841 24.83 12.2 53.9 36 -2.6 27.4
12:50 1012 29.88 841 24.83 12 53.6 37 -2.2 28
12:55 1012 29.88 841 24.83 11.8 53.2 38 -1.9 28.6
13:00 1012 29.88 841 24.83 11.6 52.8 39 -1.8 28.8
13:05 1012 29.88 841 24.83 11.9 53.4 37 -2.1 28.2
13:10 1012 29.88 841 24.83 12.1 53.7 38 -1.8 28.7
13:15 1012 29.88 841 24.83 11.9 53.4 39 -1.7 29
13:20 1012 29.88 841 24.83 11.9 53.4 41 -1 30.2
13:25 1012 29.88 841 24.83 11.8 53.3 40 -1.4 29.5
13:30 1012 29.88 841 24.83 12 53.6 40 -1 30.3
13:35 1012 29.88 841 24.83 12.2 54 38 -1.6 29.1
13:40 1012 29.88 841 24.83 12.8 55.1 33 -2.8 26.9
13:45 1012 29.88 841 24.83 13 55.3 34 -2.5 27.4
13:50 1012 29.88 841 24.83 13 55.4 33 -2.7 27.2
13:55 1012 29.88 841 24.83 13.3 55.9 34 -2.2 28
14:00 1012 29.88 841 24.83 13.9 57 33 -2.2 28
14:05 1012 29.88 841 24.83 13.6 56.4 34 -2.1 28.2
14:10 1011 29.85 841 24.83 14 57.2 31 -2.7 27.1
14:15 1011 29.85 841 24.83 14.1 57.3 31 -2.7 27.2
14:20 1011 29.85 840 24.81 14 57.1 33 -1.8 28.7
14:25 1011 29.85 840 24.81 14.5 58 30 -2.7 27.1
14:30 1011 29.85 840 24.81 14.1 57.3 31 -2.6 27.3
14:35 1011 29.85 840 24.81 14.4 57.9 32 -2 28.4
14:40 1011 29.85 840 24.81 14.3 57.8 32 -2.2 28.1
14:45 1011 29.85 840 24.81 14.5 58.1 31 -2.2 28.1
14:50 1011 29.85 840 24.81 14.5 58 30 -2.9 26.8
14:55 1011 29.85 840 24.81 14.4 57.9 32 -2.2 28.1
15:00 1011 29.85 840 24.81 14.5 58.2 31 -2.1 28.2
15:05 1011 29.85 840 24.81 14.6 58.2 29 -3.2 26.2
15:10 1011 29.85 840 24.81 15.1 59.2 32 -1.5 29.2
15:15 1011 29.85 840 24.81 14.9 58.7 32 -1.8 28.8
15:20 1011 29.85 840 24.81 14.5 58 32 -1.8 28.8
15:25 1011 29.85 840 24.81 14.1 57.4 33 -1.8 28.7
15:30 1011 29.85 840 24.81 14.2 57.6 33 -1.9 28.6
15:35 1011 29.85 840 24.81 14.7 58.4 31 -2.2 28
15:40 1011 29.85 840 24.81 14.9 58.8 32 -1.4 29.5
15:45 1010 29.83 840 24.81 15.3 59.5 30 -1.9 28.6
15:50 1010 29.83 840 24.81 15.8 60.4 30 -1.6 29.1
15:55 1010 29.83 839 24.78 15.7 60.3 29 -2.2 28
16:00 1010 29.83 839 24.78 15.3 59.5 29 -2.4 27.6
16:05 1010 29.83 839 24.78 15.1 59.2 29 -2.7 27.1
16:10 1010 29.83 839 24.78 15.1 59.2 30 -2.1 28.2
16:15 1010 29.83 839 24.78 15.1 59.2 31 -1.8 28.8
16:20 1010 29.83 839 24.78 15.1 59.3 32 -1.3 29.7
16:25 1010 29.83 839 24.78 14.9 58.9 32 -1.4 29.5
16:30 1010 29.83 839 24.78 14.8 58.7 32 -1.4 29.5
16:35 1010 29.83 839 24.78 14.8 58.6 31 -2.1 28.2
16:40 1010 29.83 839 24.78 14.7 58.5 32 -1.8 28.7
16:45 1010 29.83 839 24.78 14.7 58.4 32 -1.9 28.5
16:50 1010 29.83 839 24.78 14.3 57.7 33 -1.8 28.7
16:55 1010 29.83 839 24.78 14.2 57.6 33 -1.6 29.1
17:00 1010 29.83 839 24.78 13.9 57 37 -0.6 30.8
17:05 1010 29.83 839 24.78 13.8 56.8 36 -1.2 29.9
17:10 1010 29.83 839 24.78 14.2 57.6 34 -1.2 29.8
17:15 1010 29.83 839 24.78 14.6 58.2 34 -1.2 29.8
17:20 1010 29.83 839 24.78 14.2 57.5 36 -0.6 30.9
17:25 1010 29.83 839 24.78 13.9 56.9 35 -1.1 30
17:30 1010 29.83 839 24.78 14 57.1 34 -1.4 29.5
17:35 1010 29.83 839 24.78 14.2 57.5 34 -1.2 29.8
17:40 1010 29.83 839 24.78 14.1 57.3 33 -1.8 28.8
17:45 1010 29.83 839 24.78 14 57.2 34 -1.7 29
17:50 1011 29.85 840 24.81 13.9 57.1 47 2.8 37.1
17:55 1011 29.85 841 24.83 11.2 52.2 69 5.7 42.2
18:00 1012 29.88 841 24.83 9.2 48.6 74 4.9 40.8
18:05 1012 29.88 841 24.83 8.7 47.6 76 4.6 40.3
18:10 1011 29.85 841 24.83 8.5 47.4 78 4.9 40.9
18:15 1011 29.85 841 24.83 8.6 47.4 79 5.1 41.2
18:20 1012 29.88 841 24.83 8.5 47.3 78 5 40.9
18:25 1012 29.88 841 24.83 8.5 47.3 76 4.4 40
18:30 1012 29.88 841 24.83 8.6 47.5 75 4.4 40
18:35 1012 29.88 841 24.83 8.9 48 73 4.4 40
18:40 1012 29.88 841 24.83 8.8 47.9 73 4.3 39.7
18:45 1012 29.88 841 24.83 8.9 47.9 72 4.2 39.5
18:50 1012 29.88 841 24.83 8.7 47.6 75 4.5 40.1
18:55 1012 29.88 841 24.83 8.5 47.4 76 4.5 40.1
19:00 1012 29.88 841 24.83 8.4 47.1 75 4.2 39.6
19:05 1012 29.88 841 24.83 8.3 46.9 77 4.4 39.9
19:10 1012 29.88 841 24.83 8.5 47.3 75 4.3 39.8
19:15 1012 29.88 842 24.86 8.6 47.4 74 4.3 39.7
19:20 1013 29.91 842 24.86 8.6 47.5 75 4.5 40.1
19:25 1013 29.91 842 24.86 8.4 47.2 78 4.9 40.8
19:30 1013 29.91 842 24.86 8.2 46.8 79 4.8 40.7
19:35 1012 29.88 842 24.86 8.3 46.9 80 5 40.9
19:40 1013 29.91 842 24.86 8.3 46.9 80 5 40.9
19:45 1013 29.91 842 24.86 8.3 46.9 81 5.2 41.3
19:50 1013 29.91 842 24.86 8.5 47.2 82 5.6 42.1
19:55 1013 29.91 842 24.86 8.4 47.1 82 5.4 41.8
20:00 1013 29.91 842 24.86 8.5 47.2 77 4.7 40.5
20:05 1013 29.91 842 24.86 8.3 46.9 77 4.4 40
20:10 1013 29.91 842 24.86 8.3 46.9 75 4 39.3
20:15 1013 29.91 842 24.86 8.3 46.9 73 3.8 38.9
20:20 1013 29.91 842 24.86 8.2 46.8 75 4.1 39.4
20:25 1013 29.91 842 24.86 8.1 46.6 76 4.2 39.5
20:30 1013 29.91 842 24.86 8.1 46.6 75 3.9 38.9
20:35 1013 29.91 842 24.86 8 46.5 73 3.5 38.3
20:40 1013 29.91 842 24.86 7.9 46.2 74 3.7 38.6
20:45 1013 29.91 842 24.86 8 46.3 72 3.3 38
20:50 1013 29.91 842 24.86 8 46.3 76 3.9 39.1
20:55 1013 29.91 843 24.89 7.8 46.1 77 4 39.1
21:00 1013 29.91 843 24.89 7.8 46.1 76 3.9 39
21:05 1014 29.94 843 24.89 7.8 46.1 78 4.2 39.6
21:10 1014 29.94 843 24.89 7.7 45.9 80 4.5 40
21:15 1014 29.94 843 24.89 7.6 45.7 83 4.9 40.8
21:20 1014 29.94 843 24.89 7.5 45.4 83 4.7 40.5
21:25 1014 29.94 843 24.89 7.4 45.4 78 3.8 38.9
21:30 1014 29.94 843 24.89 7.3 45.2 78 3.8 38.9
21:35 1014 29.94 843 24.89 7.3 45.1 77 3.6 38.5
21:40 1014 29.94 843 24.89 7.4 45.2 76 3.4 38.1
21:45 1014 29.94 844 24.92 7.5 45.4 76 3.5 38.4
21:50 1015 29.97 844 24.92 7.3 45.1 78 3.8 38.8
21:55 1015 29.97 844 24.92 6.9 44.4 82 4.1 39.3
22:00 1015 29.97 844 24.92 6.6 43.8 83 3.9 39
22:05 1015 29.97 844 24.92 6.6 44 84 4.2 39.6
22:10 1015 29.97 844 24.92 6.7 44.1 82 3.9 39
22:15 1015 29.97 845 24.95 6.6 44 78 3.2 37.7
22:20 1015 29.97 845 24.95 5.8 42.5 83 3.1 37.6
22:25 1015 29.97 845 24.95 5.7 42.3 82 2.9 37.3
22:30 1016 30 845 24.95 6.2 43.2 83 3.6 38.5
22:35 1016 30 845 24.95 6.3 43.3 84 3.8 38.9
22:40 1016 30 845 24.95 6 42.8 87 4 39.2
22:45 1016 30 845 24.95 5.8 42.4 86 3.6 38.5
22:50 1016 30 845 24.95 5.7 42.3 85 3.5 38.3
22:55 1016 30 845 24.95 5.7 42.3 85 3.5 38.2
23:00 1016 30 845 24.95 5.8 42.5 85 3.5 38.4
23:05 1016 30 845 24.95 6 42.8 86 3.8 38.8
23:10 1016 30 845 24.95 6.1 43 86 4 39.1
23:15 1016 30 846 24.98 6.2 43.1 86 4 39.2
23:20 1017 30.03 846 24.98 6 42.8 86 3.8 38.8
23:25 1017 30.03 846 24.98 6 42.7 83 3.4 38.1
23:30 1017 30.03 846 24.98 6.1 42.9 83 3.4 38.1
23:35 1017 30.03 846 24.98 6 42.8 82 3.2 37.8
23:40 1017 30.03 846 24.98 6 42.8 81 3 37.4
23:45 1017 30.03 846 24.98 6 42.8 79 2.7 36.9
23:50 1017 30.03 846 24.98 6.1 42.9 81 3.1 37.6
23:55 1017 30.03 846 24.98 6 42.8 82 3.1 37.5
24:00 1017 30.03 846 24.98 5.9 42.7 82 3.1 37.5